sensor_id;sensor_type;location;lat;lon;timestamp;temperature;humidity
57652;DHT22;43480;53.116;6.734;2022-08-25T00:01:14;20.00;99.90
57652;DHT22;43480;53.116;6.734;2022-08-25T00:03:41;20.00;99.90
57652;DHT22;43480;53.116;6.734;2022-08-25T00:06:07;20.00;99.90
57652;DHT22;43480;53.116;6.734;2022-08-25T00:08:33;20.00;99.90
57652;DHT22;43480;53.116;6.734;2022-08-25T00:11:00;20.00;99.90
57652;DHT22;43480;53.116;6.734;2022-08-25T00:13:25;20.00;99.90
57652;DHT22;43480;53.116;6.734;2022-08-25T00:15:52;20.00;99.90
57652;DHT22;43480;53.116;6.734;2022-08-25T00:18:18;19.90;99.90
57652;DHT22;43480;53.116;6.734;2022-08-25T00:20:44;19.90;99.90
57652;DHT22;43480;53.116;6.734;2022-08-25T00:23:09;19.90;99.90
57652;DHT22;43480;53.116;6.734;2022-08-25T00:25:35;19.90;99.90
57652;DHT22;43480;53.116;6.734;2022-08-25T00:28:00;19.90;99.90
57652;DHT22;43480;53.116;6.734;2022-08-25T00:30:26;19.90;99.90
57652;DHT22;43480;53.116;6.734;2022-08-25T00:32:52;19.90;99.90
57652;DHT22;43480;53.116;6.734;2022-08-25T00:35:17;19.90;99.90
57652;DHT22;43480;53.116;6.734;2022-08-25T00:37:43;19.80;99.90
57652;DHT22;43480;53.116;6.734;2022-08-25T00:40:09;19.80;99.90
57652;DHT22;43480;53.116;6.734;2022-08-25T00:42:35;19.80;99.90
57652;DHT22;43480;53.116;6.734;2022-08-25T00:45:01;19.80;99.90
57652;DHT22;43480;53.116;6.734;2022-08-25T00:47:27;19.80;99.90
57652;DHT22;43480;53.116;6.734;2022-08-25T00:49:54;19.90;99.90
57652;DHT22;43480;53.116;6.734;2022-08-25T00:54:48;19.90;99.90
57652;DHT22;43480;53.116;6.734;2022-08-25T00:57:16;20.00;99.90
57652;DHT22;43480;53.116;6.734;2022-08-25T00:59:42;20.00;99.90
57652;DHT22;43480;53.116;6.734;2022-08-25T01:02:09;20.00;99.90
57652;DHT22;43480;53.116;6.734;2022-08-25T01:04:35;20.00;99.90
57652;DHT22;43480;53.116;6.734;2022-08-25T01:07:02;20.00;99.90
57652;DHT22;43480;53.116;6.734;2022-08-25T01:09:28;20.00;99.90
57652;DHT22;43480;53.116;6.734;2022-08-25T01:11:56;19.90;99.90
57652;DHT22;43480;53.116;6.734;2022-08-25T01:14:21;19.90;99.90
57652;DHT22;43480;53.116;6.734;2022-08-25T01:16:48;19.90;99.90
57652;DHT22;43480;53.116;6.734;2022-08-25T01:19:14;19.80;99.90
57652;DHT22;43480;53.116;6.734;2022-08-25T01:21:58;19.80;99.90
57652;DHT22;43480;53.116;6.734;2022-08-25T01:26:55;19.80;99.90
57652;DHT22;43480;53.116;6.734;2022-08-25T01:29:21;19.80;99.90
57652;DHT22;43480;53.116;6.734;2022-08-25T01:31:47;19.80;99.90
57652;DHT22;43480;53.116;6.734;2022-08-25T01:34:13;19.80;99.90
57652;DHT22;43480;53.116;6.734;2022-08-25T01:36:40;19.70;99.90
57652;DHT22;43480;53.116;6.734;2022-08-25T01:39:06;19.70;99.90
57652;DHT22;43480;53.116;6.734;2022-08-25T01:41:39;19.60;99.90
57652;DHT22;43480;53.116;6.734;2022-08-25T01:44:06;19.60;99.90
57652;DHT22;43480;53.116;6.734;2022-08-25T01:46:32;19.60;99.90
57652;DHT22;43480;53.116;6.734;2022-08-25T01:48:59;19.60;99.90
57652;DHT22;43480;53.116;6.734;2022-08-25T01:51:25;19.60;99.90
57652;DHT22;43480;53.116;6.734;2022-08-25T01:53:52;19.60;99.90
57652;DHT22;43480;53.116;6.734;2022-08-25T01:56:18;19.60;99.90
57652;DHT22;43480;53.116;6.734;2022-08-25T01:58:44;19.50;99.90
57652;DHT22;43480;53.116;6.734;2022-08-25T02:01:14;19.50;99.90
57652;DHT22;43480;53.116;6.734;2022-08-25T02:03:43;19.50;99.90
57652;DHT22;43480;53.116;6.734;2022-08-25T02:06:13;19.40;99.90
57652;DHT22;43480;53.116;6.734;2022-08-25T02:08:39;19.40;99.90
57652;DHT22;43480;53.116;6.734;2022-08-25T02:11:04;19.30;99.90
57652;DHT22;43480;53.116;6.734;2022-08-25T02:13:30;19.30;99.90
57652;DHT22;43480;53.116;6.734;2022-08-25T02:15:56;19.20;99.90
57652;DHT22;43480;53.116;6.734;2022-08-25T02:18:22;19.10;99.90
57652;DHT22;43480;53.116;6.734;2022-08-25T02:20:48;19.00;99.90
57652;DHT22;43480;53.116;6.734;2022-08-25T02:23:14;18.80;99.90
57652;DHT22;43480;53.116;6.734;2022-08-25T02:25:40;18.70;99.90
57652;DHT22;43480;53.116;6.734;2022-08-25T02:28:06;18.70;99.90
57652;DHT22;43480;53.116;6.734;2022-08-25T02:30:33;18.60;99.90
57652;DHT22;43480;53.116;6.734;2022-08-25T02:32:58;18.50;99.90
57652;DHT22;43480;53.116;6.734;2022-08-25T02:35:24;18.40;99.90
57652;DHT22;43480;53.116;6.734;2022-08-25T02:37:50;18.20;99.90
57652;DHT22;43480;53.116;6.734;2022-08-25T02:40:15;18.20;99.90
57652;DHT22;43480;53.116;6.734;2022-08-25T02:42:41;18.10;99.90
57652;DHT22;43480;53.116;6.734;2022-08-25T02:45:07;18.10;99.90
57652;DHT22;43480;53.116;6.734;2022-08-25T02:47:33;18.10;99.90
57652;DHT22;43480;53.116;6.734;2022-08-25T02:49:59;18.10;99.90
57652;DHT22;43480;53.116;6.734;2022-08-25T02:52:24;18.20;99.90
57652;DHT22;43480;53.116;6.734;2022-08-25T02:54:50;18.20;99.90
57652;DHT22;43480;53.116;6.734;2022-08-25T02:57:15;18.30;99.90
57652;DHT22;43480;53.116;6.734;2022-08-25T02:59:42;18.40;99.90
57652;DHT22;43480;53.116;6.734;2022-08-25T03:02:11;18.50;99.90
57652;DHT22;43480;53.116;6.734;2022-08-25T03:04:37;18.60;99.90
57652;DHT22;43480;53.116;6.734;2022-08-25T03:07:02;18.60;99.90
57652;DHT22;43480;53.116;6.734;2022-08-25T03:09:28;18.70;99.90
57652;DHT22;43480;53.116;6.734;2022-08-25T03:11:54;18.80;99.90
57652;DHT22;43480;53.116;6.734;2022-08-25T03:14:19;18.80;99.90
57652;DHT22;43480;53.116;6.734;2022-08-25T03:16:45;18.90;99.90
57652;DHT22;43480;53.116;6.734;2022-08-25T03:19:10;18.90;99.90
57652;DHT22;43480;53.116;6.734;2022-08-25T03:21:36;18.90;99.90
57652;DHT22;43480;53.116;6.734;2022-08-25T03:24:03;19.00;99.90
57652;DHT22;43480;53.116;6.734;2022-08-25T03:26:29;19.00;99.90
57652;DHT22;43480;53.116;6.734;2022-08-25T03:29:13;19.00;99.90
57652;DHT22;43480;53.116;6.734;2022-08-25T03:31:39;19.00;99.90
57652;DHT22;43480;53.116;6.734;2022-08-25T03:34:07;19.00;99.90
57652;DHT22;43480;53.116;6.734;2022-08-25T03:36:33;19.00;99.90
57652;DHT22;43480;53.116;6.734;2022-08-25T03:38:59;19.00;99.90
57652;DHT22;43480;53.116;6.734;2022-08-25T03:41:25;19.00;99.90
57652;DHT22;43480;53.116;6.734;2022-08-25T03:43:52;19.00;99.90
57652;DHT22;43480;53.116;6.734;2022-08-25T03:46:19;18.90;99.90
57652;DHT22;43480;53.116;6.734;2022-08-25T03:48:46;18.90;99.90
57652;DHT22;43480;53.116;6.734;2022-08-25T03:51:18;18.80;99.90
57652;DHT22;43480;53.116;6.734;2022-08-25T03:53:43;18.80;99.90
57652;DHT22;43480;53.116;6.734;2022-08-25T03:56:09;18.70;99.90
57652;DHT22;43480;53.116;6.734;2022-08-25T03:58:35;18.60;99.90
57652;DHT22;43480;53.116;6.734;2022-08-25T04:01:00;18.40;99.90
57652;DHT22;43480;53.116;6.734;2022-08-25T04:03:26;18.30;99.90
57652;DHT22;43480;53.116;6.734;2022-08-25T04:05:51;18.10;99.90
57652;DHT22;43480;53.116;6.734;2022-08-25T04:08:17;18.00;99.90
57652;DHT22;43480;53.116;6.734;2022-08-25T04:10:43;17.80;99.90
57652;DHT22;43480;53.116;6.734;2022-08-25T04:13:09;17.70;99.90
57652;DHT22;43480;53.116;6.734;2022-08-25T04:15:38;17.50;99.90
57652;DHT22;43480;53.116;6.734;2022-08-25T04:18:06;17.50;99.90
57652;DHT22;43480;53.116;6.734;2022-08-25T04:20:31;17.40;99.90
57652;DHT22;43480;53.116;6.734;2022-08-25T04:22:57;17.30;99.90
57652;DHT22;43480;53.116;6.734;2022-08-25T04:25:25;17.30;99.90
57652;DHT22;43480;53.116;6.734;2022-08-25T04:27:52;17.30;99.90
57652;DHT22;43480;53.116;6.734;2022-08-25T04:30:17;17.20;99.90
57652;DHT22;43480;53.116;6.734;2022-08-25T04:32:43;17.20;99.90
57652;DHT22;43480;53.116;6.734;2022-08-25T04:35:08;17.20;99.90
57652;DHT22;43480;53.116;6.734;2022-08-25T04:37:34;17.20;99.90
57652;DHT22;43480;53.116;6.734;2022-08-25T04:40:00;17.20;99.90
57652;DHT22;43480;53.116;6.734;2022-08-25T04:42:26;17.30;99.90
57652;DHT22;43480;53.116;6.734;2022-08-25T04:44:51;17.40;99.90
57652;DHT22;43480;53.116;6.734;2022-08-25T04:47:18;17.50;99.90
57652;DHT22;43480;53.116;6.734;2022-08-25T04:49:44;17.70;99.90
57652;DHT22;43480;53.116;6.734;2022-08-25T04:52:09;17.70;99.90
57652;DHT22;43480;53.116;6.734;2022-08-25T04:54:35;17.90;99.90
57652;DHT22;43480;53.116;6.734;2022-08-25T04:57:00;18.00;99.90
57652;DHT22;43480;53.116;6.734;2022-08-25T04:59:26;18.10;99.90
57652;DHT22;43480;53.116;6.734;2022-08-25T05:01:51;18.20;99.90
57652;DHT22;43480;53.116;6.734;2022-08-25T05:04:19;18.20;99.90
57652;DHT22;43480;53.116;6.734;2022-08-25T05:06:45;18.30;99.90
57652;DHT22;43480;53.116;6.734;2022-08-25T05:09:11;18.40;99.90
57652;DHT22;43480;53.116;6.734;2022-08-25T05:11:37;18.40;99.90
57652;DHT22;43480;53.116;6.734;2022-08-25T05:14:02;18.50;99.90
57652;DHT22;43480;53.116;6.734;2022-08-25T05:16:28;18.60;99.90
57652;DHT22;43480;53.116;6.734;2022-08-25T05:18:54;18.60;99.90
57652;DHT22;43480;53.116;6.734;2022-08-25T05:21:21;18.60;99.90
57652;DHT22;43480;53.116;6.734;2022-08-25T05:23:47;18.70;99.90
57652;DHT22;43480;53.116;6.734;2022-08-25T05:26:15;18.70;99.90
57652;DHT22;43480;53.116;6.734;2022-08-25T05:28:40;18.70;99.90
57652;DHT22;43480;53.116;6.734;2022-08-25T05:31:06;18.80;99.90
57652;DHT22;43480;53.116;6.734;2022-08-25T05:33:33;18.80;99.90
57652;DHT22;43480;53.116;6.734;2022-08-25T05:35:58;18.80;99.90
57652;DHT22;43480;53.116;6.734;2022-08-25T05:38:24;18.90;99.90
57652;DHT22;43480;53.116;6.734;2022-08-25T05:40:56;18.90;99.90
57652;DHT22;43480;53.116;6.734;2022-08-25T05:43:22;19.00;99.90
57652;DHT22;43480;53.116;6.734;2022-08-25T05:45:47;19.10;99.90
57652;DHT22;43480;53.116;6.734;2022-08-25T05:48:13;19.10;99.90
57652;DHT22;43480;53.116;6.734;2022-08-25T05:50:39;19.10;99.90
57652;DHT22;43480;53.116;6.734;2022-08-25T05:53:04;19.20;99.90
57652;DHT22;43480;53.116;6.734;2022-08-25T05:55:30;19.30;99.90
57652;DHT22;43480;53.116;6.734;2022-08-25T05:57:55;19.30;99.90
57652;DHT22;43480;53.116;6.734;2022-08-25T06:00:21;19.40;99.90
57652;DHT22;43480;53.116;6.734;2022-08-25T06:02:46;19.50;99.90
57652;DHT22;43480;53.116;6.734;2022-08-25T06:05:18;19.50;99.90
57652;DHT22;43480;53.116;6.734;2022-08-25T06:07:45;19.60;99.90
57652;DHT22;43480;53.116;6.734;2022-08-25T06:10:11;19.70;99.90
57652;DHT22;43480;53.116;6.734;2022-08-25T06:12:38;19.70;99.90
57652;DHT22;43480;53.116;6.734;2022-08-25T06:15:04;19.80;99.90
57652;DHT22;43480;53.116;6.734;2022-08-25T06:17:30;19.90;99.90
57652;DHT22;43480;53.116;6.734;2022-08-25T06:19:55;20.00;99.90
57652;DHT22;43480;53.116;6.734;2022-08-25T06:22:21;20.10;99.90
57652;DHT22;43480;53.116;6.734;2022-08-25T06:24:47;20.20;99.90
57652;DHT22;43480;53.116;6.734;2022-08-25T06:27:12;20.20;99.90
57652;DHT22;43480;53.116;6.734;2022-08-25T06:29:38;20.30;99.90
57652;DHT22;43480;53.116;6.734;2022-08-25T06:32:04;20.40;99.90
57652;DHT22;43480;53.116;6.734;2022-08-25T06:34:29;20.40;99.90
57652;DHT22;43480;53.116;6.734;2022-08-25T06:36:55;20.50;99.90
57652;DHT22;43480;53.116;6.734;2022-08-25T06:39:20;20.50;99.90
57652;DHT22;43480;53.116;6.734;2022-08-25T06:41:50;20.60;99.90
57652;DHT22;43480;53.116;6.734;2022-08-25T06:44:15;20.70;99.90
57652;DHT22;43480;53.116;6.734;2022-08-25T06:46:41;20.80;99.90
57652;DHT22;43480;53.116;6.734;2022-08-25T06:49:06;20.80;99.90
57652;DHT22;43480;53.116;6.734;2022-08-25T06:51:32;21.00;99.90
57652;DHT22;43480;53.116;6.734;2022-08-25T06:54:00;21.10;99.90
57652;DHT22;43480;53.116;6.734;2022-08-25T06:56:25;21.20;99.90
57652;DHT22;43480;53.116;6.734;2022-08-25T06:58:51;21.20;99.90
57652;DHT22;43480;53.116;6.734;2022-08-25T07:01:20;21.30;99.90
57652;DHT22;43480;53.116;6.734;2022-08-25T07:03:48;21.30;99.90
57652;DHT22;43480;53.116;6.734;2022-08-25T07:06:14;21.40;99.90
57652;DHT22;43480;53.116;6.734;2022-08-25T07:08:39;21.40;99.90
57652;DHT22;43480;53.116;6.734;2022-08-25T07:11:05;21.50;99.90
57652;DHT22;43480;53.116;6.734;2022-08-25T07:13:31;21.60;99.90
57652;DHT22;43480;53.116;6.734;2022-08-25T07:15:57;21.70;99.90
57652;DHT22;43480;53.116;6.734;2022-08-25T07:18:23;21.70;99.90
57652;DHT22;43480;53.116;6.734;2022-08-25T07:20:48;21.80;99.90
57652;DHT22;43480;53.116;6.734;2022-08-25T07:23:16;21.90;99.90
57652;DHT22;43480;53.116;6.734;2022-08-25T07:25:42;22.00;99.90
57652;DHT22;43480;53.116;6.734;2022-08-25T07:28:08;22.10;99.90
57652;DHT22;43480;53.116;6.734;2022-08-25T07:30:33;22.20;99.90
57652;DHT22;43480;53.116;6.734;2022-08-25T07:32:59;22.30;99.90
57652;DHT22;43480;53.116;6.734;2022-08-25T07:35:24;22.30;99.90
57652;DHT22;43480;53.116;6.734;2022-08-25T07:37:52;22.50;99.90
57652;DHT22;43480;53.116;6.734;2022-08-25T07:40:22;22.50;99.90
57652;DHT22;43480;53.116;6.734;2022-08-25T07:42:49;22.70;99.90
57652;DHT22;43480;53.116;6.734;2022-08-25T07:45:15;22.70;99.90
57652;DHT22;43480;53.116;6.734;2022-08-25T07:47:40;22.80;99.90
57652;DHT22;43480;53.116;6.734;2022-08-25T07:50:07;23.00;99.90
57652;DHT22;43480;53.116;6.734;2022-08-25T07:52:33;23.10;99.90
57652;DHT22;43480;53.116;6.734;2022-08-25T07:54:58;23.20;99.90
57652;DHT22;43480;53.116;6.734;2022-08-25T07:57:24;23.30;99.90
57652;DHT22;43480;53.116;6.734;2022-08-25T07:59:51;23.40;99.90
57652;DHT22;43480;53.116;6.734;2022-08-25T08:02:16;23.50;99.90
57652;DHT22;43480;53.116;6.734;2022-08-25T08:04:42;23.60;99.90
57652;DHT22;43480;53.116;6.734;2022-08-25T08:07:10;23.70;99.90
57652;DHT22;43480;53.116;6.734;2022-08-25T08:09:36;23.70;99.90
57652;DHT22;43480;53.116;6.734;2022-08-25T08:12:02;23.90;99.90
57652;DHT22;43480;53.116;6.734;2022-08-25T08:14:27;24.00;99.90
57652;DHT22;43480;53.116;6.734;2022-08-25T08:16:53;24.10;99.90
57652;DHT22;43480;53.116;6.734;2022-08-25T08:19:18;24.30;99.90
57652;DHT22;43480;53.116;6.734;2022-08-25T08:21:44;24.40;99.90
57652;DHT22;43480;53.116;6.734;2022-08-25T08:24:11;24.50;99.90
57652;DHT22;43480;53.116;6.734;2022-08-25T08:26:36;24.60;99.90
57652;DHT22;43480;53.116;6.734;2022-08-25T08:29:02;24.70;99.90
57652;DHT22;43480;53.116;6.734;2022-08-25T08:31:28;24.80;99.90
57652;DHT22;43480;53.116;6.734;2022-08-25T08:33:54;24.90;99.90
57652;DHT22;43480;53.116;6.734;2022-08-25T08:36:20;25.10;99.90
57652;DHT22;43480;53.116;6.734;2022-08-25T08:38:46;25.10;99.50
57652;DHT22;43480;53.116;6.734;2022-08-25T08:49:59;25.60;98.90
57652;DHT22;43480;53.116;6.734;2022-08-25T08:57:57;26.00;97.10
57652;DHT22;43480;53.116;6.734;2022-08-25T09:00:23;26.10;97.00
57652;DHT22;43480;53.116;6.734;2022-08-25T09:02:51;26.20;97.10
57652;DHT22;43480;53.116;6.734;2022-08-25T09:05:19;26.30;96.10
57652;DHT22;43480;53.116;6.734;2022-08-25T09:07:47;26.40;96.30
57652;DHT22;43480;53.116;6.734;2022-08-25T09:10:14;26.50;96.30
57652;DHT22;43480;53.116;6.734;2022-08-25T09:12:42;26.60;96.30
57652;DHT22;43480;53.116;6.734;2022-08-25T09:17:43;26.90;95.00
57652;DHT22;43480;53.116;6.734;2022-08-25T09:27:59;27.30;94.20
57652;DHT22;43480;53.116;6.734;2022-08-25T09:30:30;27.40;93.20
57652;DHT22;43480;53.116;6.734;2022-08-25T09:32:57;27.60;93.20
57652;DHT22;43480;53.116;6.734;2022-08-25T09:35:33;27.70;91.90
57652;DHT22;43480;53.116;6.734;2022-08-25T09:38:00;27.90;92.00
57652;DHT22;43480;53.116;6.734;2022-08-25T09:40:27;28.00;90.00
57652;DHT22;43480;53.116;6.734;2022-08-25T09:42:55;28.10;90.00
57652;DHT22;43480;53.116;6.734;2022-08-25T09:45:42;28.10;87.80
57652;DHT22;43480;53.116;6.734;2022-08-25T09:48:20;28.20;87.10
57652;DHT22;43480;53.116;6.734;2022-08-25T09:50:47;28.40;85.30
57652;DHT22;43480;53.116;6.734;2022-08-25T09:53:13;28.40;84.20
57652;DHT22;43480;53.116;6.734;2022-08-25T09:55:40;28.50;82.40
57652;DHT22;43480;53.116;6.734;2022-08-25T09:58:17;28.50;82.00
57652;DHT22;43480;53.116;6.734;2022-08-25T10:00:44;28.60;84.10
57652;DHT22;43480;53.116;6.734;2022-08-25T10:03:25;28.70;80.80
57652;DHT22;43480;53.116;6.734;2022-08-25T10:08:27;29.00;77.80
57652;DHT22;43480;53.116;6.734;2022-08-25T10:10:56;29.10;76.50
57652;DHT22;43480;53.116;6.734;2022-08-25T10:13:31;29.20;75.20
57652;DHT22;43480;53.116;6.734;2022-08-25T10:16:08;29.30;75.10
57652;DHT22;43480;53.116;6.734;2022-08-25T10:18:34;29.40;76.40
57652;DHT22;43480;53.116;6.734;2022-08-25T10:23:29;29.70;71.50
57652;DHT22;43480;53.116;6.734;2022-08-25T10:25:55;29.70;73.00
57652;DHT22;43480;53.116;6.734;2022-08-25T10:28:30;29.80;72.60
57652;DHT22;43480;53.116;6.734;2022-08-25T10:41:28;30.30;71.30
57652;DHT22;43480;53.116;6.734;2022-08-25T10:49:47;30.70;69.80
57652;DHT22;43480;53.116;6.734;2022-08-25T10:52:19;30.90;67.80
57652;DHT22;43480;53.116;6.734;2022-08-25T10:55:12;31.00;66.40
57652;DHT22;43480;53.116;6.734;2022-08-25T11:00:19;31.20;63.70
57652;DHT22;43480;53.116;6.734;2022-08-25T11:07:50;31.60;63.60
57652;DHT22;43480;53.116;6.734;2022-08-25T11:10:19;31.70;60.50
57652;DHT22;43480;53.116;6.734;2022-08-25T11:12:59;31.80;62.60
57652;DHT22;43480;53.116;6.734;2022-08-25T11:15:30;32.00;62.40
57652;DHT22;43480;53.116;6.734;2022-08-25T11:18:01;32.10;62.00
57652;DHT22;43480;53.116;6.734;2022-08-25T11:20:30;32.20;61.50
57652;DHT22;43480;53.116;6.734;2022-08-25T11:23:05;32.40;61.00
57652;DHT22;43480;53.116;6.734;2022-08-25T11:25:36;32.50;60.40
57652;DHT22;43480;53.116;6.734;2022-08-25T11:30:41;32.80;59.40
57652;DHT22;43480;53.116;6.734;2022-08-25T11:33:10;32.80;58.10
57652;DHT22;43480;53.116;6.734;2022-08-25T11:35:45;32.90;58.30
57652;DHT22;43480;53.116;6.734;2022-08-25T11:40:49;33.10;56.80
57652;DHT22;43480;53.116;6.734;2022-08-25T11:48:34;33.40;55.20
57652;DHT22;43480;53.116;6.734;2022-08-25T11:51:05;33.60;56.60
57652;DHT22;43480;53.116;6.734;2022-08-25T11:53:33;33.80;53.50
57652;DHT22;43480;53.116;6.734;2022-08-25T11:56:12;33.90;54.10
57652;DHT22;43480;53.116;6.734;2022-08-25T11:58:55;34.00;53.50
57652;DHT22;43480;53.116;6.734;2022-08-25T12:09:29;34.30;54.10
57652;DHT22;43480;53.116;6.734;2022-08-25T12:11:55;34.40;53.70
57652;DHT22;43480;53.116;6.734;2022-08-25T12:19:25;34.90;50.00
57652;DHT22;43480;53.116;6.734;2022-08-25T12:21:52;35.00;51.00
57652;DHT22;43480;53.116;6.734;2022-08-25T12:24:24;35.00;50.00
57652;DHT22;43480;53.116;6.734;2022-08-25T12:27:01;35.20;50.30
57652;DHT22;43480;53.116;6.734;2022-08-25T12:29:36;35.40;50.60
57652;DHT22;43480;53.116;6.734;2022-08-25T12:32:08;35.50;49.60
57652;DHT22;43480;53.116;6.734;2022-08-25T12:37:23;35.60;49.90
57652;DHT22;43480;53.116;6.734;2022-08-25T12:42:20;35.80;47.30
57652;DHT22;43480;53.116;6.734;2022-08-25T12:44:47;35.70;47.30
57652;DHT22;43480;53.116;6.734;2022-08-25T12:47:31;35.80;47.90
57652;DHT22;43480;53.116;6.734;2022-08-25T12:52:42;36.20;48.40
57652;DHT22;43480;53.116;6.734;2022-08-25T12:55:08;36.40;48.40
57652;DHT22;43480;53.116;6.734;2022-08-25T12:57:38;36.50;46.90
57652;DHT22;43480;53.116;6.734;2022-08-25T13:00:10;36.50;46.40
57652;DHT22;43480;53.116;6.734;2022-08-25T13:07:56;36.70;46.60
57652;DHT22;43480;53.116;6.734;2022-08-25T13:10:43;36.80;46.80
57652;DHT22;43480;53.116;6.734;2022-08-25T13:13:33;36.90;47.60
57652;DHT22;43480;53.116;6.734;2022-08-25T13:16:00;37.00;46.20
57652;DHT22;43480;53.116;6.734;2022-08-25T13:18:27;37.10;45.70
57652;DHT22;43480;53.116;6.734;2022-08-25T13:21:02;37.20;45.10
57652;DHT22;43480;53.116;6.734;2022-08-25T13:23:28;37.30;45.00
57652;DHT22;43480;53.116;6.734;2022-08-25T13:25:55;37.30;45.00
57652;DHT22;43480;53.116;6.734;2022-08-25T13:28:26;37.40;45.70
57652;DHT22;43480;53.116;6.734;2022-08-25T13:30:55;37.60;44.70
57652;DHT22;43480;53.116;6.734;2022-08-25T13:33:21;37.60;45.00
57652;DHT22;43480;53.116;6.734;2022-08-25T13:35:49;37.40;44.60
57652;DHT22;43480;53.116;6.734;2022-08-25T13:38:17;37.40;45.80
57652;DHT22;43480;53.116;6.734;2022-08-25T13:40:43;37.40;45.00
57652;DHT22;43480;53.116;6.734;2022-08-25T13:43:10;37.60;44.80
57652;DHT22;43480;53.116;6.734;2022-08-25T13:45:37;37.60;44.80
57652;DHT22;43480;53.116;6.734;2022-08-25T13:48:03;37.80;45.30
57652;DHT22;43480;53.116;6.734;2022-08-25T13:50:36;38.00;45.20
57652;DHT22;43480;53.116;6.734;2022-08-25T14:01:14;37.70;44.50
57652;DHT22;43480;53.116;6.734;2022-08-25T14:03:42;37.50;44.60
57652;DHT22;43480;53.116;6.734;2022-08-25T14:08:44;37.50;44.70
57652;DHT22;43480;53.116;6.734;2022-08-25T14:11:11;37.60;44.70
57652;DHT22;43480;53.116;6.734;2022-08-25T14:13:38;37.80;46.00
57652;DHT22;43480;53.116;6.734;2022-08-25T14:18:32;38.10;45.20
57652;DHT22;43480;53.116;6.734;2022-08-25T14:20:58;38.10;45.10
57652;DHT22;43480;53.116;6.734;2022-08-25T14:23:24;38.30;45.20
57652;DHT22;43480;53.116;6.734;2022-08-25T14:25:52;38.20;44.30
57652;DHT22;43480;53.116;6.734;2022-08-25T14:28:20;38.10;44.70
57652;DHT22;43480;53.116;6.734;2022-08-25T14:30:47;38.20;45.20
57652;DHT22;43480;53.116;6.734;2022-08-25T14:33:14;38.30;43.80
57652;DHT22;43480;53.116;6.734;2022-08-25T14:35:41;38.30;43.70
57652;DHT22;43480;53.116;6.734;2022-08-25T14:38:08;38.30;43.40
57652;DHT22;43480;53.116;6.734;2022-08-25T14:40:34;38.20;43.60
57652;DHT22;43480;53.116;6.734;2022-08-25T14:42:59;38.20;44.00
57652;DHT22;43480;53.116;6.734;2022-08-25T14:45:25;38.40;44.60
57652;DHT22;43480;53.116;6.734;2022-08-25T14:47:51;38.40;43.30
57652;DHT22;43480;53.116;6.734;2022-08-25T14:50:17;38.50;43.50
57652;DHT22;43480;53.116;6.734;2022-08-25T14:52:43;38.40;43.40
57652;DHT22;43480;53.116;6.734;2022-08-25T14:55:09;38.40;44.50
57652;DHT22;43480;53.116;6.734;2022-08-25T14:57:35;38.40;44.10
57652;DHT22;43480;53.116;6.734;2022-08-25T15:00:01;38.40;43.70
57652;DHT22;43480;53.116;6.734;2022-08-25T15:02:27;38.50;43.20
57652;DHT22;43480;53.116;6.734;2022-08-25T15:04:54;38.50;43.40
57652;DHT22;43480;53.116;6.734;2022-08-25T15:07:21;38.60;43.80
57652;DHT22;43480;53.116;6.734;2022-08-25T15:10:06;38.70;43.10
57652;DHT22;43480;53.116;6.734;2022-08-25T15:12:32;38.60;42.80
57652;DHT22;43480;53.116;6.734;2022-08-25T15:14:57;38.50;42.90
57652;DHT22;43480;53.116;6.734;2022-08-25T15:17:23;38.60;43.00
57652;DHT22;43480;53.116;6.734;2022-08-25T15:19:48;38.60;42.40
57652;DHT22;43480;53.116;6.734;2022-08-25T15:22:14;38.70;43.20
57652;DHT22;43480;53.116;6.734;2022-08-25T15:24:39;38.70;43.10
57652;DHT22;43480;53.116;6.734;2022-08-25T15:27:06;38.70;43.00
57652;DHT22;43480;53.116;6.734;2022-08-25T15:29:33;38.80;42.70
57652;DHT22;43480;53.116;6.734;2022-08-25T15:32:03;38.80;43.70
57652;DHT22;43480;53.116;6.734;2022-08-25T15:34:29;39.00;42.20
57652;DHT22;43480;53.116;6.734;2022-08-25T15:36:55;39.00;42.40
57652;DHT22;43480;53.116;6.734;2022-08-25T15:39:22;38.90;42.20
57652;DHT22;43480;53.116;6.734;2022-08-25T15:41:48;38.60;42.70
57652;DHT22;43480;53.116;6.734;2022-08-25T15:44:16;38.70;43.10
57652;DHT22;43480;53.116;6.734;2022-08-25T15:46:42;38.80;42.60
57652;DHT22;43480;53.116;6.734;2022-08-25T15:49:08;39.00;42.70
57652;DHT22;43480;53.116;6.734;2022-08-25T15:51:34;39.10;43.20
57652;DHT22;43480;53.116;6.734;2022-08-25T15:53:59;39.30;42.90
57652;DHT22;43480;53.116;6.734;2022-08-25T15:56:25;39.30;42.10
57652;DHT22;43480;53.116;6.734;2022-08-25T15:58:51;39.50;42.40
57652;DHT22;43480;53.116;6.734;2022-08-25T16:01:18;39.60;41.90
57652;DHT22;43480;53.116;6.734;2022-08-25T16:03:43;39.70;42.20
57652;DHT22;43480;53.116;6.734;2022-08-25T16:06:09;39.90;41.60
57652;DHT22;43480;53.116;6.734;2022-08-25T16:08:35;40.00;41.00
57652;DHT22;43480;53.116;6.734;2022-08-25T16:11:01;40.10;40.90
57652;DHT22;43480;53.116;6.734;2022-08-25T16:13:27;40.10;41.00
57652;DHT22;43480;53.116;6.734;2022-08-25T16:15:53;40.10;41.00
57652;DHT22;43480;53.116;6.734;2022-08-25T16:18:19;40.00;39.80
57652;DHT22;43480;53.116;6.734;2022-08-25T16:20:45;39.70;40.40
57652;DHT22;43480;53.116;6.734;2022-08-25T16:23:11;39.30;41.40
57652;DHT22;43480;53.116;6.734;2022-08-25T16:25:38;38.90;42.00
57652;DHT22;43480;53.116;6.734;2022-08-25T16:28:04;38.30;43.80
57652;DHT22;43480;53.116;6.734;2022-08-25T16:30:29;37.50;44.90
57652;DHT22;43480;53.116;6.734;2022-08-25T16:32:55;36.80;45.60
57652;DHT22;43480;53.116;6.734;2022-08-25T16:35:20;36.00;46.10
57652;DHT22;43480;53.116;6.734;2022-08-25T16:37:46;35.60;47.30
57652;DHT22;43480;53.116;6.734;2022-08-25T16:40:13;35.30;48.00
57652;DHT22;43480;53.116;6.734;2022-08-25T16:42:39;35.00;48.10
57652;DHT22;43480;53.116;6.734;2022-08-25T16:45:04;34.80;48.10
57652;DHT22;43480;53.116;6.734;2022-08-25T16:47:30;34.60;49.00
57652;DHT22;43480;53.116;6.734;2022-08-25T16:50:01;34.50;49.30
57652;DHT22;43480;53.116;6.734;2022-08-25T16:52:27;34.60;49.50
57652;DHT22;43480;53.116;6.734;2022-08-25T16:55:11;34.90;49.30
57652;DHT22;43480;53.116;6.734;2022-08-25T16:57:41;35.00;48.90
57652;DHT22;43480;53.116;6.734;2022-08-25T17:00:07;35.00;49.30
57652;DHT22;43480;53.116;6.734;2022-08-25T17:02:35;35.00;48.80
57652;DHT22;43480;53.116;6.734;2022-08-25T17:05:01;34.80;48.80
57652;DHT22;43480;53.116;6.734;2022-08-25T17:07:27;34.50;49.80
57652;DHT22;43480;53.116;6.734;2022-08-25T17:09:52;34.40;50.00
57652;DHT22;43480;53.116;6.734;2022-08-25T17:12:22;34.20;49.80
57652;DHT22;43480;53.116;6.734;2022-08-25T17:14:47;33.90;50.30
57652;DHT22;43480;53.116;6.734;2022-08-25T17:17:13;33.60;50.70
57652;DHT22;43480;53.116;6.734;2022-08-25T17:19:39;33.30;52.10